Pagrindinis puslapis
METAR-TAF:

METAR-TAF

Oro uostai :

Elista, Rusija

platuma: 46-22N, ilguma: 044-20E, Aukštis: 150 m

Dabartinis oras

Ataskaita buvo paskelbta 26 minutes, ne 18:00 UTC
Vėjas 8 kt iš Šiaurės/Šiaurės Vakarų
Temperatūra 16°C
Drėgmė 51%
Slėgis 1019 hPa
Matomumas 10 km arba daugiau

METAR: URWI 151800Z AUTO 34004MPS 9999 // ///130/// 16/06 Q1019

Laikas: 21:26 (18:26 UTC)

Prognozė

Ataskaita buvo paskelbta 3 valandos ir 26 minutes, ne 15:00 UTC
Prognozė galioja nuo 15 metu 15 UTC su 15 metu 24 UTC
Vėjas 6 kt iš Šiaurės su gūsio iki 16 kt
Matomumas 10 km arba daugiau
Išsisklaidę debesys ne aukštis 3000 ft, Liūtiniai kamuoliniai debesys.
Laikinai
nuo 15 metu 15 UTC su 15 metu 18 UTC
Vėjas 17 kt iš Vakarų/Šiaurės Vakarų su gūsio iki 27 kt

TAF: URWI 151500Z 1515/1524 35003G08MPS 9999 SCT030CB TEMPO 1515/1518 30009G14MPS

Orai ataskaitas ir orų prognozės (METAR, TAF).

turimą stotys yra geltonos ir raudonos taškus žemėlapyje.

Perkelti pele per norėdami pamatyti stoties vardą.

Tada spustelėkite, norėdami matyti oro stebėjimo ir prognozės.

Norėdami pakeisti žemėlapį: spustelėkite ant žalios mygtukų su juodo kryžiaus žemyn,; žalią mygtuką su brūkšneliu, jei norite nutolinti; arba žalių rodyklių gretimoms žemėlapius.


METAR-TAF: